Time;durP1;ratioP1;P1;durP2;ratioP2;P2;SDS_P1;SDS_P2;PMS_P1;PMS_P2;Temp;Humidity;BMP_temperature;BMP_pressure;BME280_temperature;BME280_humidity;BME280_pressure;Samples;Min_cycle;Max_cycle;Signal;HPM_P1;HPM_P2
2022/04/29 00:00:51;;;;;;;2.60;2.33;;;23.20;44.30;;;;;;6276707;28;20062;-53
2022/04/29 00:03:53;;;;;;;2.38;2.10;;;23.20;44.30;;;;;;6277011;28;20039;-50
2022/04/29 00:06:55;;;;;;;2.20;2.00;;;23.40;44.40;;;;;;6279538;28;20892;-53
2022/04/29 00:09:57;;;;;;;2.90;2.60;;;23.20;44.30;;;;;;6241153;28;20146;-50
2022/04/29 00:12:59;;;;;;;;;;;23.20;44.30;;;;;;6283066;28;20075;-52
2022/04/29 00:16:01;;;;;;;2.65;2.45;;;23.20;44.30;;;;;;6283389;28;19953;-54
2022/04/29 00:19:03;;;;;;;2.35;2.10;;;23.20;44.20;;;;;;6280452;28;20221;-51
2022/04/29 00:22:05;;;;;;;2.40;2.20;;;23.20;44.20;;;;;;6283460;28;20047;-51
2022/04/29 00:25:08;;;;;;;2.30;1.80;;;23.00;44.20;;;;;;6284088;28;20044;-51
2022/04/29 00:28:10;;;;;;;2.35;2.10;;;23.00;44.20;;;;;;6280144;28;20040;-53
2022/04/29 00:31:12;;;;;;;2.28;1.90;;;23.00;44.20;;;;;;6285263;28;20036;-51
2022/04/29 00:34:14;;;;;;;2.38;2.17;;;23.10;44.20;;;;;;6281099;28;20040;-51
2022/04/29 00:37:16;;;;;;;2.13;1.92;;;22.90;44.10;;;;;;6285126;28;20186;-54
2022/04/29 00:40:21;;;;;;;2.38;1.92;;;22.90;44.20;;;;;;6287145;28;20108;-51
2022/04/29 00:43:23;;;;;;;2.33;2.13;;;23.10;44.20;;;;;;6266550;28;20116;-50
2022/04/29 00:46:24;;;;;;;2.28;2.08;;;23.00;44.20;;;;;;6281452;28;20094;-54
2022/04/29 00:49:26;;;;;;;2.47;2.03;;;23.00;44.20;;;;;;6276950;28;20954;-51
2022/04/29 00:52:31;;;;;;;1.98;1.67;;;23.00;44.20;;;;;;6283218;28;20051;-51
2022/04/29 00:55:36;;;;;;;2.63;1.92;;;22.90;44.10;;;;;;6288145;28;20024;-50
2022/04/29 00:58:42;;;;;;;2.15;1.90;;;22.80;44.00;;;;;;6273779;28;20162;-49
2022/04/29 01:01:46;;;;;;;2.90;1.95;;;23.00;44.20;;;;;;6253375;28;20042;-53
2022/04/29 01:04:56;;;;;;;2.03;1.83;;;23.00;44.10;;;;;;6263162;28;20035;-50
2022/04/29 01:07:59;;;;;;;3.25;2.22;;;22.90;44.10;;;;;;6281585;28;20920;-51
2022/04/29 01:11:01;;;;;;;1.83;1.73;;;23.00;44.20;;;;;;6288309;28;20042;-50
2022/04/29 01:14:02;;;;;;;2.00;1.80;;;23.00;44.10;;;;;;6281957;28;20914;-52
2022/04/29 01:17:04;;;;;;;2.15;1.77;;;22.80;44.00;;;;;;6283444;28;20054;-54
2022/04/29 01:20:08;;;;;;;1.77;1.63;;;23.00;44.20;;;;;;6284675;28;20036;-52
2022/04/29 01:23:12;;;;;;;2.15;1.80;;;22.90;44.10;;;;;;6260179;28;20146;-55
2022/04/29 01:26:15;;;;;;;1.90;1.77;;;22.90;44.10;;;;;;6265497;28;20063;-53
2022/04/29 01:29:22;;;;;;;2.35;1.85;;;22.80;44.10;;;;;;6285031;28;21114;-55
2022/04/29 01:32:25;;;;;;;2.15;1.95;;;22.90;44.20;;;;;;6262820;28;20132;-52
2022/04/29 01:35:28;;;;;;;1.77;1.67;;;22.90;44.20;;;;;;6278087;28;20526;-52
2022/04/29 01:38:30;;;;;;;1.70;1.60;;;22.90;44.20;;;;;;6281837;28;20775;-54
2022/04/29 01:41:34;;;;;;;1.92;1.73;;;22.90;44.20;;;;;;6280293;28;20027;-52
2022/04/29 01:44:35;;;;;;;2.30;1.67;;;22.90;44.20;;;;;;6281799;28;20047;-50
2022/04/29 01:47:37;;;;;;;1.83;1.67;;;22.70;44.10;;;;;;6279586;28;20055;-50
2022/04/29 01:50:59;;;;;;;2.08;1.70;;;22.80;44.20;;;;;;6280124;28;20043;-53
2022/04/29 01:54:01;;;;;;;1.80;1.63;;;22.90;44.30;;;;;;6269587;28;20051;-52
2022/04/29 01:57:03;;;;;;;2.13;1.80;;;22.80;44.20;;;;;;6279294;28;20039;-49
2022/04/29 02:00:06;;;;;;;2.03;1.80;;;22.70;44.20;;;;;;6283668;28;20052;-50
2022/04/29 02:03:18;;;;;;;2.08;1.65;;;22.80;44.30;;;;;;6280697;28;20943;-51
2022/04/29 02:06:20;;;;;;;1.98;1.70;;;22.80;44.30;;;;;;6280034;28;20117;-54
2022/04/29 02:09:24;;;;;;;2.17;1.70;;;22.80;44.30;;;;;;6278839;28;20825;-52
2022/04/29 02:12:26;;;;;;;2.80;1.67;;;22.90;44.30;;;;;;6281253;28;20111;-51
2022/04/29 02:15:48;;;;;;;2.05;1.50;;;22.80;44.30;;;;;;6274424;28;20040;-53
2022/04/29 02:18:51;;;;;;;2.00;1.50;;;22.90;44.30;;;;;;6283877;28;20894;-52
2022/04/29 02:21:53;;;;;;;1.92;1.63;;;22.80;44.30;;;;;;6282679;28;20091;-49
2022/04/29 02:24:57;;;;;;;1.60;1.48;;;22.80;44.30;;;;;;6283914;28;20036;-52
2022/04/29 02:27:58;;;;;;;2.40;1.90;;;22.60;44.20;;;;;;6257796;28;20285;-49
2022/04/29 02:31:01;;;;;;;1.55;1.45;;;22.80;44.30;;;;;;6274750;28;20216;-52
2022/04/29 02:34:03;;;;;;;1.88;1.33;;;22.90;44.30;;;;;;6272031;28;20580;-47
2022/04/29 02:37:05;;;;;;;1.58;1.48;;;22.80;44.30;;;;;;6276089;28;20273;-50
2022/04/29 02:40:08;;;;;;;1.52;1.20;;;22.80;44.20;;;;;;6271145;28;20047;-53
2022/04/29 02:43:10;;;;;;;1.80;1.40;;;22.80;44.30;;;;;;6276062;28;20071;-53
2022/04/29 02:46:12;;;;;;;1.30;1.20;;;22.80;44.20;;;;;;6277112;28;20063;-53
2022/04/29 02:49:13;;;;;;;1.67;1.30;;;22.90;44.30;;;;;;6274824;28;20048;-54
2022/04/29 02:52:15;;;;;;;2.00;1.42;;;22.80;44.30;;;;;;6272517;28;20047;-53
2022/04/29 02:55:18;;;;;;;1.63;1.48;;;22.80;44.20;;;;;;6276216;28;20164;-51
2022/04/29 02:58:27;;;;;;;1.63;1.30;;;22.70;44.20;;;;;;6276199;28;20648;-49
2022/04/29 03:01:29;;;;;;;;;;;22.80;44.20;;;;;;6277022;28;20132;-53
2022/04/29 03:04:30;;;;;;;;;;;22.90;44.20;;;;;;6277740;28;20347;-50
2022/04/29 03:07:33;;;;;;;1.45;1.13;;;22.80;44.20;;;;;;6274996;28;20164;-49
2022/04/29 03:10:38;;;;;;;1.73;1.30;;;22.60;44.00;;;;;;6273281;28;20387;-55
2022/04/29 03:13:40;;;;;;;1.05;0.95;;;22.80;44.20;;;;;;6273133;28;20443;-51
2022/04/29 03:16:45;;;;;;;1.40;1.23;;;22.80;44.20;;;;;;6276525;28;20192;-50
2022/04/29 03:19:47;;;;;;;1.40;1.10;;;22.80;44.20;;;;;;6274138;28;20050;-51
2022/04/29 03:22:48;;;;;;;1.90;1.70;;;22.80;44.20;;;;;;6285085;28;20047;-54
2022/04/29 03:25:50;;;;;;;1.30;1.17;;;22.70;44.10;;;;;;6269477;28;20399;-51
2022/04/29 03:28:52;;;;;;;1.58;1.20;;;22.60;44.00;;;;;;6274308;28;20035;-50
2022/04/29 03:31:54;;;;;;;1.42;1.20;;;22.80;44.10;;;;;;6274623;28;20048;-52
2022/04/29 03:35:10;;;;;;;1.80;1.10;;;22.80;44.10;;;;;;6283940;28;20052;-51
2022/04/29 03:38:12;;;;;;;1.52;1.38;;;22.70;44.00;;;;;;6285305;28;20095;-51
2022/04/29 03:41:14;;;;;;;1.75;1.20;;;22.70;44.10;;;;;;6282748;28;20171;-55
2022/04/29 03:44:17;;;;;;;2.08;1.50;;;22.70;44.00;;;;;;6274469;28;20043;-49
2022/04/29 03:47:19;;;;;;;1.35;1.25;;;22.70;44.10;;;;;;6277467;28;20680;-52
2022/04/29 03:50:32;;;;;;;1.42;1.23;;;22.80;44.10;;;;;;6280212;28;20090;-48
2022/04/29 03:53:40;;;;;;;1.50;1.23;;;22.70;44.00;;;;;;6267318;28;20050;-54
2022/04/29 03:56:42;;;;;;;;;;;22.80;44.20;;;;;;6283552;28;20047;-50
2022/04/29 03:59:43;;;;;;;1.30;1.20;;;22.70;44.10;;;;;;6278677;28;19934;-51
2022/04/29 04:02:45;;;;;;;1.48;1.02;;;22.70;44.00;;;;;;6285501;28;20050;-52
2022/04/29 04:09:04;;;;;;;0.98;0.82;;;22.70;44.00;;;;;;6271599;28;20155;-49
2022/04/29 04:12:07;;;;;;;1.02;0.93;;;22.70;44.10;;;;;;6279312;28;20331;-52
2022/04/29 04:15:28;;;;;;;1.40;0.98;;;22.70;44.10;;;;;;6274376;28;20261;-48
2022/04/29 04:18:31;;;;;;;1.10;0.93;;;22.70;44.20;;;;;;6270004;28;20047;-50
2022/04/29 04:21:33;;;;;;;1.08;0.85;;;22.70;44.10;;;;;;6277978;28;20038;-52
2022/04/29 04:24:36;;;;;;;1.10;1.00;;;22.60;44.10;;;;;;6281493;28;20044;-50
2022/04/29 04:27:38;;;;;;;1.60;1.30;;;22.60;44.00;;;;;;6279606;28;20804;-50
2022/04/29 04:30:40;;;;;;;1.10;0.90;;;22.70;44.10;;;;;;6244395;28;20175;-52
2022/04/29 04:33:42;;;;;;;2.05;1.23;;;22.70;44.10;;;;;;6275830;28;20059;-49
2022/04/29 04:36:43;;;;;;;1.42;0.95;;;22.70;44.10;;;;;;6275444;28;20051;-52
2022/04/29 04:39:45;;;;;;;;;;;22.70;44.10;;;;;;6277876;28;20663;-49
2022/04/29 04:42:51;;;;;;;1.40;1.20;;;22.60;44.10;;;;;;6280396;28;20815;-52
2022/04/29 04:46:01;;;;;;;1.73;1.10;;;22.60;44.10;;;;;;6277720;28;20040;-50
2022/04/29 04:49:23;;;;;;;;;;;22.50;44.00;;;;;;6277982;28;20044;-53
2022/04/29 04:52:32;;;;;;;1.83;1.30;;;22.60;44.10;;;;;;6280324;28;20781;-52
2022/04/29 04:55:34;;;;;;;1.55;1.23;;;22.60;44.10;;;;;;6277061;28;20036;-51
2022/04/29 04:58:37;;;;;;;1.30;1.20;;;22.60;44.10;;;;;;6280097;28;20043;-51
2022/04/29 05:01:39;;;;;;;1.40;1.00;;;22.40;44.00;;;;;;6272009;28;20031;-53
2022/04/29 05:05:00;;;;;;;;;;;22.60;44.20;;;;;;6257411;28;20035;-54
2022/04/29 05:08:15;;;;;;;1.58;1.10;;;22.70;44.30;;;;;;6266032;28;20231;-50
2022/04/29 05:11:17;;;;;;;1.63;1.20;;;22.50;44.10;;;;;;6262152;28;20036;-53
2022/04/29 05:14:40;;;;;;;1.75;1.10;;;22.60;44.20;;;;;;6271082;28;20043;-51
2022/04/29 05:17:43;;;;;;;1.90;1.10;;;22.60;44.20;;;;;;6246962;28;20142;-50
2022/04/29 05:21:01;;;;;;;1.30;1.13;;;22.60;44.30;;;;;;6268952;28;20946;-54
2022/04/29 05:24:02;;;;;;;1.88;1.20;;;22.60;44.30;;;;;;6265557;28;22349;-52
2022/04/29 05:27:18;;;;;;;1.85;1.52;;;22.50;44.20;;;;;;6263874;28;20048;-53
2022/04/29 05:30:39;;;;;;;1.13;1.00;;;22.60;44.30;;;;;;6263718;28;21234;-51
2022/04/29 05:33:58;;;;;;;1.63;1.17;;;22.50;44.20;;;;;;6260183;28;20055;-52
2022/04/29 05:37:19;;;;;;;1.55;0.98;;;22.60;44.30;;;;;;6263416;28;20461;-53
2022/04/29 05:43:57;;;;;;;1.90;1.17;;;22.60;44.30;;;;;;6255944;28;20039;-53
2022/04/29 05:46:59;;;;;;;2.15;1.15;;;22.50;44.30;;;;;;6253652;28;20043;-50
2022/04/29 05:50:01;;;;;;;1.58;1.20;;;22.50;44.30;;;;;;6259474;28;20118;-53
2022/04/29 05:53:06;;;;;;;1.63;1.40;;;22.50;44.30;;;;;;6240049;28;20158;-51
2022/04/29 05:56:10;;;;;;;1.58;1.23;;;22.50;44.30;;;;;;6260862;28;20047;-54
2022/04/29 05:59:12;;;;;;;1.17;1.08;;;22.60;44.40;;;;;;6253832;28;20389;-53
2022/04/29 06:02:29;;;;;;;1.30;1.10;;;22.50;44.30;;;;;;6257024;28;20515;-50
2022/04/29 06:05:42;;;;;;;1.77;1.13;;;22.50;44.30;;;;;;6260515;28;20039;-53
2022/04/29 06:08:44;;;;;;;1.40;0.95;;;22.50;44.30;;;;;;6253313;28;20060;-51
2022/04/29 06:11:46;;;;;;;2.22;1.30;;;22.50;45.00;;;;;;6245615;28;20039;-49
2022/04/29 06:14:54;;;;;;;1.50;1.30;;;22.60;44.50;;;;;;6242085;28;20051;-51
2022/04/29 06:18:09;;;;;;;1.98;1.15;;;22.50;44.40;;;;;;6237530;28;20340;-53
2022/04/29 06:21:30;;;;;;;1.98;1.10;;;22.60;44.50;;;;;;6229134;28;20351;-50
2022/04/29 06:24:44;;;;;;;2.70;1.10;;;22.50;44.40;;;;;;6260855;28;20040;-52
2022/04/29 06:28:06;;;;;;;2.78;1.20;;;22.40;44.40;;;;;;6240709;28;20040;-53
2022/04/29 06:31:08;;;;;;;1.27;1.10;;;22.60;44.60;;;;;;6245039;28;21376;-54
2022/04/29 06:34:31;;;;;;;1.73;1.27;;;22.50;44.60;;;;;;6240376;28;20039;-54
2022/04/29 06:37:34;;;;;;;1.42;1.10;;;22.60;44.60;;;;;;6229594;28;21045;-49
2022/04/29 06:40:56;;;;;;;1.15;0.90;;;22.50;44.60;;;;;;6205306;28;21205;-53
2022/04/29 06:44:00;;;;;;;2.17;1.23;;;22.60;44.70;;;;;;6222556;28;20052;-53
2022/04/29 06:47:21;;;;;;;1.42;0.93;;;22.60;44.80;;;;;;6205139;28;20150;-48
2022/04/29 06:50:43;;;;;;;;;;;22.60;44.90;;;;;;6212355;28;21237;-50
2022/04/29 06:54:05;;;;;;;3.28;1.40;;;22.50;44.80;;;;;;6129100;28;23684;-49
2022/04/29 06:57:11;;;;;;;4.95;1.20;;;22.60;44.80;;;;;;6176241;28;20242;-48
2022/04/29 07:00:14;;;;;;;2.45;0.90;;;22.60;44.90;;;;;;6063906;28;20435;-49
2022/04/29 07:03:16;;;;;;;3.20;1.00;;;22.60;45.10;;;;;;6111852;28;20044;-53
2022/04/29 07:06:19;;;;;;;1.27;1.10;;;22.60;45.30;;;;;;6100478;28;20114;-49
2022/04/29 07:09:21;;;;;;;3.80;0.95;;;22.60;45.40;;;;;;6068879;28;26884;-50
2022/04/29 07:13:02;;;;;;;1.80;1.15;;;22.60;45.40;;;;;;6078409;28;20166;-50
2022/04/29 07:16:05;;;;;;;2.42;0.93;;;22.70;45.60;;;;;;6091544;28;20047;-49
2022/04/29 07:19:27;;;;;;;4.75;1.40;;;22.70;45.60;;;;;;6076822;28;20129;-52
2022/04/29 07:22:50;;;;;;;2.17;1.27;;;22.70;45.60;;;;;;6081389;28;20186;-50
2022/04/29 07:25:52;;;;;;;3.08;1.52;;;22.80;45.60;;;;;;6098774;28;33634;-49
2022/04/29 07:28:54;;;;;;;3.00;1.20;;;22.70;45.40;;;;;;6099214;28;28677;-48
2022/04/29 07:31:58;;;;;;;1.92;1.10;;;22.80;45.40;;;;;;6101553;28;20170;-50
2022/04/29 07:41:58;;;;;;;2.20;1.40;;;22.80;45.30;;;;;;6115022;28;20048;-49
2022/04/29 07:45:02;;;;;;;2.67;1.40;;;22.80;45.30;;;;;;6083321;28;20139;-49
2022/04/29 07:48:24;;;;;;;2.55;1.38;;;22.80;45.30;;;;;;6102826;28;21515;-46
2022/04/29 07:51:25;;;;;;;1.17;1.08;;;22.90;45.20;;;;;;6097113;28;20265;-52
2022/04/29 07:54:28;;;;;;;2.88;1.33;;;22.90;45.20;;;;;;6098551;28;20083;-51
2022/04/29 07:57:29;;;;;;;2.78;1.30;;;22.90;45.10;;;;;;6121469;28;20040;-48
2022/04/29 08:00:33;;;;;;;2.53;1.33;;;22.90;45.10;;;;;;6107552;28;20042;-47
2022/04/29 08:03:56;;;;;;;2.85;1.17;;;23.00;45.10;;;;;;6057288;28;20039;-49
2022/04/29 08:06:58;;;;;;;1.98;0.90;;;23.00;45.10;;;;;;6070094;28;22056;-49
2022/04/29 08:10:09;;;;;;;1.88;1.08;;;22.90;45.00;;;;;;6090558;28;20043;-49
2022/04/29 08:13:11;;;;;;;1.45;1.08;;;22.90;45.00;;;;;;6102623;28;21675;-52
2022/04/29 08:16:33;;;;;;;1.98;1.20;;;22.90;44.90;;;;;;6101465;28;20054;-51
2022/04/29 08:19:43;;;;;;;2.53;1.33;;;23.00;45.00;;;;;;6090554;28;22295;-53
2022/04/29 08:22:51;;;;;;;2.17;1.27;;;22.90;44.90;;;;;;6088899;28;20163;-49
2022/04/29 08:25:53;;;;;;;2.20;1.20;;;23.00;44.90;;;;;;6079242;28;20936;-53
2022/04/29 08:28:56;;;;;;;2.08;1.20;;;23.00;44.90;;;;;;6079700;28;21308;-52
2022/04/29 08:31:58;;;;;;;4.10;2.00;;;23.10;45.00;;;;;;6100500;28;20043;-50
2022/04/29 08:35:00;;;;;;;2.65;1.30;;;23.00;44.90;;;;;;6097834;28;20159;-54
2022/04/29 08:38:02;;;;;;;3.10;1.58;;;23.00;44.90;;;;;;6112623;28;20141;-50
2022/04/29 08:41:19;;;;;;;3.28;1.20;;;23.10;45.00;;;;;;6081275;28;20043;-49
2022/04/29 08:44:23;;;;;;;3.05;1.48;;;23.00;44.90;;;;;;6073792;28;20047;-52
2022/04/29 08:47:30;;;;;;;1.77;1.65;;;23.10;44.90;;;;;;6085013;28;20047;-53
2022/04/29 08:50:39;;;;;;;3.42;1.73;;;23.10;44.90;;;;;;6061586;28;20055;-52
2022/04/29 08:53:40;;;;;;;2.35;1.95;;;23.10;44.90;;;;;;6068490;28;20154;-50
2022/04/29 09:00:01;;;;;;;2.70;1.80;;;23.20;44.90;;;;;;6105597;28;21109;-51
2022/04/29 09:03:02;;;;;;;4.60;2.25;;;23.20;44.90;;;;;;6056266;28;21472;-48
2022/04/29 09:06:06;;;;;;;3.47;1.95;;;23.20;44.90;;;;;;6069208;28;22067;-52
2022/04/29 09:09:09;;;;;;;2.25;1.90;;;23.20;44.80;;;;;;6080947;28;20036;-52
2022/04/29 09:12:15;;;;;;;2.95;2.08;;;23.20;44.80;;;;;;6074808;28;20074;-50
2022/04/29 09:15:17;;;;;;;4.00;2.17;;;23.20;44.70;;;;;;6100821;28;20095;-52
2022/04/29 09:18:34;;;;;;;2.20;1.88;;;23.20;44.70;;;;;;6093635;28;20120;-50
2022/04/29 09:21:36;;;;;;;5.90;1.90;;;23.30;44.70;;;;;;6087208;28;20040;-52
2022/04/29 09:24:37;;;;;;;3.38;2.00;;;23.30;44.70;;;;;;6099138;28;20043;-49
2022/04/29 09:28:02;;;;;;;3.92;1.73;;;23.30;44.70;;;;;;6097187;28;20044;-49
2022/04/29 09:31:19;;;;;;;3.35;2.20;;;23.30;44.60;;;;;;6086420;28;20059;-53
2022/04/29 09:34:45;;;;;;;3.35;2.00;;;23.30;44.60;;;;;;6114520;28;20052;-53
2022/04/29 09:41:03;;;;;;;2.15;1.95;;;23.20;44.60;;;;;;6095618;28;20072;-49
2022/04/29 09:44:05;;;;;;;2.92;1.50;;;23.50;44.70;;;;;;6092008;28;20219;-50
2022/04/29 09:47:11;;;;;;;2.60;1.73;;;23.40;45.20;;;;;;6095973;28;20191;-52
2022/04/29 09:50:13;;;;;;;1.95;1.70;;;23.40;44.60;;;;;;6100979;28;20048;-50
2022/04/29 09:53:18;;;;;;;4.00;2.60;;;23.30;44.50;;;;;;6072997;28;21419;-54
2022/04/29 09:56:20;;;;;;;3.33;2.40;;;23.40;44.60;;;;;;6041939;28;20045;-52
2022/04/29 09:59:22;;;;;;;4.20;2.08;;;23.50;44.80;;;;;;6079876;28;20069;-54
2022/04/29 10:02:26;;;;;;;3.63;2.20;;;23.50;44.70;;;;;;6069405;28;20158;-52
2022/04/29 10:05:35;;;;;;;7.10;2.70;;;23.50;44.70;;;;;;6105928;28;20048;-49
2022/04/29 10:08:42;;;;;;;3.45;2.88;;;23.40;44.70;;;;;;6090815;28;20040;-53
2022/04/29 10:11:44;;;;;;;4.78;2.78;;;23.60;44.80;;;;;;6096753;28;20129;-49
2022/04/29 10:14:49;;;;;;;3.40;2.60;;;23.40;44.80;;;;;;6089501;28;20044;-51
2022/04/29 10:21:19;;;;;;;4.28;2.50;;;23.50;44.90;;;;;;6070919;28;20094;-46
2022/04/29 10:24:29;;;;;;;4.25;2.45;;;23.50;44.90;;;;;;6100318;28;20337;-46
2022/04/29 10:27:31;;;;;;;2.45;2.00;;;23.50;44.90;;;;;;6099919;28;20182;-49
2022/04/29 10:30:35;;;;;;;2.90;1.80;;;23.60;45.00;;;;;;6126072;28;20050;-46
2022/04/29 10:33:37;;;;;;;1.90;1.67;;;23.50;45.00;;;;;;6122677;28;20098;-46
2022/04/29 10:36:46;;;;;;;1.83;1.67;;;23.60;45.00;;;;;;6114147;28;20062;-49
2022/04/29 10:40:07;;;;;;;2.33;1.70;;;23.60;44.80;;;;;;6135466;28;20105;-47
2022/04/29 10:43:18;;;;;;;2.80;2.13;;;23.50;44.80;;;;;;6141089;28;20044;-49
2022/04/29 10:46:22;;;;;;;1.67;1.58;;;23.60;44.80;;;;;;6163161;28;20040;-48
2022/04/29 10:49:39;;;;;;;1.65;1.55;;;23.70;44.90;;;;;;6146250;28;20332;-48
2022/04/29 10:52:59;;;;;;;1.70;1.52;;;23.70;44.80;;;;;;6185205;28;20192;-46
2022/04/29 10:56:34;;;;;;;2.13;1.75;;;23.60;44.80;;;;;;6162206;28;22572;-47
2022/04/29 10:59:49;;;;;;;2.75;1.55;;;23.70;44.80;;;;;;6127707;28;20951;-49
2022/04/29 11:02:51;;;;;;;1.95;1.80;;;23.70;44.80;;;;;;6134453;28;20723;-50
2022/04/29 11:06:06;;;;;;;1.77;1.63;;;23.70;44.70;;;;;;6100081;28;20436;-47
2022/04/29 11:09:25;;;;;;;1.63;1.52;;;23.70;44.70;;;;;;6183785;28;20047;-49
2022/04/29 11:12:30;;;;;;;1.98;1.70;;;23.70;44.70;;;;;;6153824;28;20052;-52
2022/04/29 11:15:52;;;;;;;2.28;1.50;;;23.60;44.60;;;;;;6176797;28;20124;-49
2022/04/29 11:40:26;;;;;;;2.30;2.05;;;23.80;44.30;;;;;;7629720;22;20008;-51
2022/04/29 11:43:29;;;;;;;3.35;3.00;;;23.80;44.30;;;;;;6065613;28;20052;-46
2022/04/29 11:46:32;;;;;;;2.70;2.10;;;23.80;44.20;;;;;;6063806;28;20061;-48
2022/04/29 11:49:34;;;;;;;2.95;2.65;;;23.90;44.30;;;;;;6055572;28;21335;-51
2022/04/29 11:52:36;;;;;;;3.50;3.20;;;23.80;44.30;;;;;;6055028;28;20176;-49
2022/04/29 11:55:38;;;;;;;2.85;2.63;;;23.80;44.30;;;;;;6047562;28;20121;-49
2022/04/29 11:58:42;;;;;;;3.35;3.05;;;23.90;44.30;;;;;;6050653;28;20111;-49
2022/04/29 12:01:45;;;;;;;4.40;3.35;;;23.90;44.30;;;;;;6023158;28;20038;-50
2022/04/29 12:04:55;;;;;;;8.88;5.93;;;24.00;44.30;;;;;;5998690;28;20050;-55
2022/04/29 12:07:59;;;;;;;6.93;6.20;;;24.00;44.40;;;;;;6009261;28;20053;-50
2022/04/29 12:11:09;;;;;;;8.57;7.68;;;24.00;44.30;;;;;;6007340;28;20068;-53
2022/04/29 12:14:15;;;;;;;7.10;6.40;;;24.00;44.30;;;;;;6058067;28;20053;-52
2022/04/29 12:17:17;;;;;;;8.13;6.30;;;24.00;44.40;;;;;;6029914;28;20553;-52
2022/04/29 12:20:20;;;;;;;7.57;6.45;;;24.00;44.30;;;;;;6040105;28;21191;-50
2022/04/29 12:23:22;;;;;;;11.13;8.48;;;24.20;44.40;;;;;;6026484;28;20152;-52
2022/04/29 12:26:24;;;;;;;12.95;8.50;;;24.00;44.30;;;;;;6019242;28;20081;-51
2022/04/29 12:29:30;;;;;;;7.53;6.28;;;23.90;44.20;;;;;;5982933;28;21322;-50
2022/04/29 12:35:47;;;;;;;11.02;8.07;;;24.00;44.40;;;;;;6005699;28;20232;-50
2022/04/29 12:38:48;;;;;;;10.73;8.20;;;23.90;44.30;;;;;;6003530;28;20161;-51
2022/04/29 12:42:00;;;;;;;8.13;5.63;;;24.00;44.40;;;;;;6012382;28;20050;-49
2022/04/29 12:45:06;;;;;;;7.10;5.13;;;23.80;44.30;;;;;;6036480;28;20057;-48
2022/04/29 12:48:16;;;;;;;8.45;6.93;;;23.90;44.30;;;;;;5983200;28;20054;-51
2022/04/29 12:51:25;;;;;;;7.57;5.05;;;23.90;44.30;;;;;;6010264;28;21496;-59
2022/04/29 12:54:27;;;;;;;4.57;4.00;;;23.70;44.20;;;;;;5966957;28;21269;-55
2022/04/29 12:57:32;;;;;;;4.25;3.85;;;23.80;44.30;;;;;;5956582;28;20138;-46
2022/04/29 13:00:34;;;;;;;4.40;3.30;;;23.90;44.40;;;;;;5980743;28;20045;-50
2022/04/29 13:03:36;;;;;;;2.83;2.45;;;23.90;45.10;;;;;;5948564;28;20054;-50
2022/04/29 13:06:51;;;;;;;2.65;2.45;;;23.80;44.40;;;;;;5978144;28;21124;-53
2022/04/29 13:09:52;;;;;;;2.72;2.53;;;24.00;44.50;;;;;;6010026;28;20127;-51
2022/04/29 13:12:55;;;;;;;3.10;2.40;;;23.90;44.30;;;;;;6027608;28;21348;-50
2022/04/29 13:16:03;;;;;;;2.63;2.42;;;23.90;44.30;;;;;;6016056;28;21150;-50
2022/04/29 13:19:08;;;;;;;2.85;2.28;;;23.90;44.20;;;;;;6011021;28;20042;-48
2022/04/29 13:22:11;;;;;;;2.60;2.40;;;23.90;44.10;;;;;;6021576;28;20161;-49
2022/04/29 13:25:13;;;;;;;2.50;2.30;;;23.90;44.00;;;;;;6021754;28;21324;-51
2022/04/29 13:28:16;;;;;;;2.92;2.45;;;24.00;44.10;;;;;;5996808;28;21840;-51
2022/04/29 13:31:18;;;;;;;2.42;2.15;;;24.00;43.90;;;;;;6007546;28;20165;-55
2022/04/29 13:34:19;;;;;;;3.15;2.20;;;24.10;43.90;;;;;;6046577;28;20048;-50
2022/04/29 13:37:21;;;;;;;2.05;1.85;;;24.10;43.90;;;;;;6042068;28;20084;-50
2022/04/29 13:40:23;;;;;;;2.42;2.20;;;24.10;44.00;;;;;;6025592;28;20247;-49
2022/04/29 13:43:26;;;;;;;2.20;2.00;;;24.00;43.80;;;;;;6035590;28;20091;-49
2022/04/29 13:46:47;;;;;;;2.22;2.03;;;23.90;43.80;;;;;;5984414;28;20045;-48
2022/04/29 13:49:51;;;;;;;2.33;2.13;;;24.10;43.90;;;;;;6014893;28;20041;-50
2022/04/29 13:56:06;;;;;;;2.20;2.00;;;24.10;43.70;;;;;;6039576;28;20038;-53
2022/04/29 13:59:09;;;;;;;2.63;2.00;;;24.00;43.60;;;;;;6031133;28;20037;-52
2022/04/29 14:02:10;;;;;;;2.30;2.00;;;24.10;43.50;;;;;;5998162;28;20042;-50
2022/04/29 14:05:12;;;;;;;2.22;1.88;;;24.10;43.50;;;;;;6039205;28;20053;-49
2022/04/29 14:08:14;;;;;;;2.25;2.05;;;24.10;43.40;;;;;;6047922;28;20083;-49
2022/04/29 14:11:16;;;;;;;2.47;1.95;;;24.10;43.40;;;;;;6044054;28;20056;-45
2022/04/29 14:14:18;;;;;;;1.80;1.70;;;24.20;43.40;;;;;;6036905;28;20193;-46
2022/04/29 14:17:19;;;;;;;2.30;2.10;;;24.20;43.30;;;;;;6017612;28;20142;-50
2022/04/29 14:20:22;;;;;;;5.47;2.70;;;24.20;43.50;;;;;;6049897;28;20049;-51
2022/04/29 14:23:23;;;;;;;6.57;4.57;;;24.20;43.30;;;;;;6042381;28;20049;-48
2022/04/29 14:26:25;;;;;;;5.32;3.58;;;24.20;43.10;;;;;;6059115;28;21337;-55
2022/04/29 14:29:27;;;;;;;5.22;3.83;;;24.20;43.00;;;;;;6049215;28;20252;-49
2022/04/29 14:32:30;;;;;;;8.18;5.13;;;24.40;42.90;;;;;;6053780;28;20049;-47
2022/04/29 14:35:32;;;;;;;7.32;5.45;;;24.20;42.70;;;;;;6053549;28;20120;-47
2022/04/29 14:38:37;;;;;;;6.90;4.80;;;24.30;42.70;;;;;;6048511;28;20037;-47
2022/04/29 14:41:39;;;;;;;9.32;5.57;;;24.30;42.50;;;;;;6057428;28;20052;-57
2022/04/29 14:44:42;;;;;;;4.40;3.25;;;24.30;42.40;;;;;;6053844;28;20064;-52
2022/04/29 14:47:45;;;;;;;7.55;5.30;;;24.30;42.40;;;;;;6051107;28;21141;-47
2022/04/29 14:50:47;;;;;;;8.32;4.53;;;24.40;42.40;;;;;;6046514;28;20052;-53
2022/04/29 14:53:49;;;;;;;5.28;4.10;;;24.30;42.20;;;;;;6065988;28;21131;-50
2022/04/29 14:56:53;;;;;;;7.10;3.72;;;24.30;42.20;;;;;;6037689;28;20179;-49
2022/04/29 14:59:55;;;;;;;5.50;3.05;;;24.30;42.10;;;;;;6048131;28;20053;-47
2022/04/29 15:02:57;;;;;;;8.82;5.65;;;24.30;42.10;;;;;;6032997;28;20663;-49
2022/04/29 15:06:00;;;;;;;6.18;4.18;;;24.20;42.00;;;;;;6006316;28;20046;-47
2022/04/29 15:15:55;;;;;;;6.78;3.28;;;24.30;41.90;;;;;;6029769;28;20053;-50
2022/04/29 15:18:58;;;;;;;3.42;2.20;;;24.30;41.80;;;;;;6065498;28;20052;-62
2022/04/29 15:21:59;;;;;;;1.92;1.70;;;24.30;41.80;;;;;;6062548;28;21428;-56
2022/04/29 15:25:01;;;;;;;2.63;1.73;;;24.20;41.70;;;;;;6089910;28;20056;-53
2022/04/29 15:28:03;;;;;;;2.10;1.60;;;24.20;41.60;;;;;;6074341;28;20071;-56
2022/04/29 15:31:05;;;;;;;1.63;1.20;;;24.20;41.60;;;;;;6091563;28;20898;-55
2022/04/29 15:34:07;;;;;;;1.75;1.30;;;24.20;41.60;;;;;;6074004;28;20058;-55
2022/04/29 15:37:08;;;;;;;1.63;1.30;;;24.20;41.50;;;;;;6088843;28;20045;-56
2022/04/29 15:40:10;;;;;;;1.48;1.38;;;24.20;41.50;;;;;;6079820;28;20833;-55
2022/04/29 15:43:16;;;;;;;1.42;1.33;;;24.20;41.30;;;;;;6074344;28;20048;-56
2022/04/29 15:46:18;;;;;;;1.70;1.40;;;24.20;41.20;;;;;;6072064;28;20207;-55
2022/04/29 15:49:19;;;;;;;1.23;1.13;;;24.20;41.50;;;;;;6076764;28;20144;-62
2022/04/29 15:52:21;;;;;;;1.73;1.10;;;24.20;41.20;;;;;;6088395;28;20627;-50
2022/04/29 15:55:22;;;;;;;2.08;1.63;;;24.10;41.30;;;;;;6111626;28;20132;-55
2022/04/29 15:58:24;;;;;;;1.52;1.40;;;24.10;41.40;;;;;;6116243;28;20116;-54
2022/04/29 16:01:26;;;;;;;1.92;1.50;;;24.10;41.40;;;;;;6112246;28;20164;-55
2022/04/29 16:04:28;;;;;;;1.33;1.23;;;24.10;41.50;;;;;;6108904;28;20053;-55
2022/04/29 16:07:30;;;;;;;1.70;1.27;;;24.10;41.40;;;;;;6115068;28;20069;-53
2022/04/29 16:10:31;;;;;;;1.45;1.33;;;24.10;41.40;;;;;;6101204;28;20045;-54
2022/04/29 16:13:33;;;;;;;1.67;1.40;;;24.10;41.60;;;;;;6119194;28;20263;-56
2022/04/29 16:16:35;;;;;;;1.20;1.10;;;24.10;41.70;;;;;;6125993;28;20156;-54
2022/04/29 16:26:07;;;;;;;0.88;0.88;;;23.60;41.40;;;;;;6100107;28;20057;-56
2022/04/29 16:29:11;;;;;;;1.10;1.00;;;24.10;41.60;;;;;;6142183;28;21162;-52
2022/04/29 16:32:13;;;;;;;1.10;0.95;;;24.20;41.90;;;;;;6142632;28;20045;-55
2022/04/29 16:35:15;;;;;;;1.75;1.10;;;24.10;42.00;;;;;;6143285;28;20885;-51
2022/04/29 16:38:16;;;;;;;1.23;1.13;;;24.10;42.10;;;;;;6127607;28;20208;-53
2022/04/29 16:41:18;;;;;;;1.05;0.95;;;24.10;42.30;;;;;;6129930;28;20096;-55
2022/04/29 16:44:19;;;;;;;1.52;0.90;;;24.10;43.10;;;;;;6139544;28;20055;-54
2022/04/29 16:47:22;;;;;;;1.27;1.17;;;24.10;42.60;;;;;;6134623;28;20091;-50
2022/04/29 16:50:24;;;;;;;1.50;1.40;;;24.10;42.80;;;;;;6123591;28;20365;-53
2022/04/29 16:53:25;;;;;;;1.33;1.23;;;24.00;42.90;;;;;;6138461;28;20049;-54
2022/04/29 16:56:27;;;;;;;1.50;1.30;;;24.00;42.90;;;;;;6132323;28;20975;-52
2022/04/29 16:59:28;;;;;;;1.40;1.13;;;24.10;43.10;;;;;;6118980;28;20168;-50
2022/04/29 17:02:30;;;;;;;;;;;24.10;43.20;;;;;;6151665;28;20048;-54
2022/04/29 17:05:32;;;;;;;1.85;1.38;;;24.10;43.20;;;;;;6148909;28;19964;-52
2022/04/29 17:08:35;;;;;;;1.45;1.35;;;24.10;43.10;;;;;;6156478;28;20053;-53
2022/04/29 17:11:37;;;;;;;1.40;1.30;;;24.10;43.30;;;;;;6156244;28;20059;-51